sensor_id;sensor_type;location;lat;lon;timestamp;P1;durP1;ratioP1;P2;durP2;ratioP2
68300;SDS011;55146;47.468;18.806;2023-11-21T00:02:10;12.93;;;7.67;;
68300;SDS011;55146;47.468;18.806;2023-11-21T00:04:36;17.33;;;8.60;;
68300;SDS011;55146;47.468;18.806;2023-11-21T00:07:02;13.70;;;7.90;;
68300;SDS011;55146;47.468;18.806;2023-11-21T00:09:28;19.27;;;8.82;;
68300;SDS011;55146;47.468;18.806;2023-11-21T00:11:53;13.60;;;8.40;;
68300;SDS011;55146;47.468;18.806;2023-11-21T00:14:19;15.03;;;8.57;;
68300;SDS011;55146;47.468;18.806;2023-11-21T00:16:44;13.80;;;9.63;;
68300;SDS011;55146;47.468;18.806;2023-11-21T00:19:10;15.10;;;9.05;;
68300;SDS011;55146;47.468;18.806;2023-11-21T00:21:36;14.47;;;8.90;;
68300;SDS011;55146;47.468;18.806;2023-11-21T00:24:01;15.25;;;8.10;;
68300;SDS011;55146;47.468;18.806;2023-11-21T00:26:26;16.67;;;9.43;;
68300;SDS011;55146;47.468;18.806;2023-11-21T00:28:52;16.00;;;9.60;;
68300;SDS011;55146;47.468;18.806;2023-11-21T00:31:18;18.60;;;8.32;;
68300;SDS011;55146;47.468;18.806;2023-11-21T00:33:43;15.77;;;8.47;;
68300;SDS011;55146;47.468;18.806;2023-11-21T00:36:09;19.27;;;9.80;;
68300;SDS011;55146;47.468;18.806;2023-11-21T00:38:37;16.58;;;8.85;;
68300;SDS011;55146;47.468;18.806;2023-11-21T00:41:05;15.77;;;8.70;;
68300;SDS011;55146;47.468;18.806;2023-11-21T00:43:31;16.98;;;9.52;;
68300;SDS011;55146;47.468;18.806;2023-11-21T00:45:56;15.03;;;8.53;;
68300;SDS011;55146;47.468;18.806;2023-11-21T00:48:21;17.95;;;9.30;;
68300;SDS011;55146;47.468;18.806;2023-11-21T00:50:47;20.87;;;10.00;;
68300;SDS011;55146;47.468;18.806;2023-11-21T00:53:12;15.77;;;8.53;;
68300;SDS011;55146;47.468;18.806;2023-11-21T00:55:37;17.33;;;10.40;;
68300;SDS011;55146;47.468;18.806;2023-11-21T00:58:05;15.25;;;9.30;;
68300;SDS011;55146;47.468;18.806;2023-11-21T01:00:32;15.70;;;9.45;;
68300;SDS011;55146;47.468;18.806;2023-11-21T01:02:58;16.23;;;8.97;;
68300;SDS011;55146;47.468;18.806;2023-11-21T01:05:23;11.95;;;8.05;;
68300;SDS011;55146;47.468;18.806;2023-11-21T01:07:49;18.47;;;9.17;;
68300;SDS011;55146;47.468;18.806;2023-11-21T01:10:15;16.27;;;10.00;;
68300;SDS011;55146;47.468;18.806;2023-11-21T01:12:42;13.57;;;9.23;;
68300;SDS011;55146;47.468;18.806;2023-11-21T01:15:08;16.63;;;8.33;;
68300;SDS011;55146;47.468;18.806;2023-11-21T01:17:33;16.50;;;9.30;;
68300;SDS011;55146;47.468;18.806;2023-11-21T01:19:59;12.47;;;8.50;;
68300;SDS011;55146;47.468;18.806;2023-11-21T01:22:25;16.52;;;8.93;;
68300;SDS011;55146;47.468;18.806;2023-11-21T01:24:52;15.13;;;8.82;;
68300;SDS011;55146;47.468;18.806;2023-11-21T01:27:18;14.60;;;8.60;;
68300;SDS011;55146;47.468;18.806;2023-11-21T01:29:43;15.68;;;8.90;;
68300;SDS011;55146;47.468;18.806;2023-11-21T01:32:08;14.17;;;9.20;;
68300;SDS011;55146;47.468;18.806;2023-11-21T01:34:34;10.35;;;7.70;;
68300;SDS011;55146;47.468;18.806;2023-11-21T01:37:00;13.30;;;7.90;;
68300;SDS011;55146;47.468;18.806;2023-11-21T01:39:26;14.57;;;8.93;;
68300;SDS011;55146;47.468;18.806;2023-11-21T01:41:53;14.60;;;8.90;;
68300;SDS011;55146;47.468;18.806;2023-11-21T01:44:18;14.07;;;8.57;;
68300;SDS011;55146;47.468;18.806;2023-11-21T01:46:45;13.17;;;8.10;;
68300;SDS011;55146;47.468;18.806;2023-11-21T01:49:12;16.27;;;9.23;;
68300;SDS011;55146;47.468;18.806;2023-11-21T01:51:39;13.83;;;8.13;;
68300;SDS011;55146;47.468;18.806;2023-11-21T01:54:06;13.75;;;8.65;;
68300;SDS011;55146;47.468;18.806;2023-11-21T01:56:32;15.30;;;9.17;;
68300;SDS011;55146;47.468;18.806;2023-11-21T01:58:57;15.38;;;8.85;;
68300;SDS011;55146;47.468;18.806;2023-11-21T02:01:23;16.00;;;7.87;;
68300;SDS011;55146;47.468;18.806;2023-11-21T02:03:48;16.02;;;9.15;;
68300;SDS011;55146;47.468;18.806;2023-11-21T02:06:14;14.03;;;7.47;;
68300;SDS011;55146;47.468;18.806;2023-11-21T02:08:39;11.53;;;6.90;;
68300;SDS011;55146;47.468;18.806;2023-11-21T02:11:07;13.80;;;8.80;;
68300;SDS011;55146;47.468;18.806;2023-11-21T02:13:34;15.93;;;9.07;;
68300;SDS011;55146;47.468;18.806;2023-11-21T02:15:59;12.63;;;9.43;;
68300;SDS011;55146;47.468;18.806;2023-11-21T02:18:25;13.53;;;7.47;;
68300;SDS011;55146;47.468;18.806;2023-11-21T02:20:50;16.45;;;7.50;;
68300;SDS011;55146;47.468;18.806;2023-11-21T02:23:16;14.30;;;8.80;;
68300;SDS011;55146;47.468;18.806;2023-11-21T02:25:43;15.48;;;8.77;;
68300;SDS011;55146;47.468;18.806;2023-11-21T02:28:08;12.73;;;7.93;;
68300;SDS011;55146;47.468;18.806;2023-11-21T02:30:33;13.83;;;8.20;;
68300;SDS011;55146;47.468;18.806;2023-11-21T02:32:59;14.38;;;9.43;;
68300;SDS011;55146;47.468;18.806;2023-11-21T02:35:26;13.57;;;9.60;;
68300;SDS011;55146;47.468;18.806;2023-11-21T02:37:52;15.95;;;8.43;;
68300;SDS011;55146;47.468;18.806;2023-11-21T02:40:18;14.13;;;8.77;;
68300;SDS011;55146;47.468;18.806;2023-11-21T02:42:45;13.70;;;8.57;;
68300;SDS011;55146;47.468;18.806;2023-11-21T02:45:12;14.23;;;9.03;;
68300;SDS011;55146;47.468;18.806;2023-11-21T02:47:41;14.38;;;8.45;;
68300;SDS011;55146;47.468;18.806;2023-11-21T02:50:10;16.70;;;8.90;;
68300;SDS011;55146;47.468;18.806;2023-11-21T02:52:35;15.80;;;8.73;;
68300;SDS011;55146;47.468;18.806;2023-11-21T02:55:03;13.50;;;7.40;;
68300;SDS011;55146;47.468;18.806;2023-11-21T02:57:29;12.37;;;8.63;;
68300;SDS011;55146;47.468;18.806;2023-11-21T02:59:55;14.73;;;7.53;;
68300;SDS011;55146;47.468;18.806;2023-11-21T03:02:20;12.13;;;7.33;;
68300;SDS011;55146;47.468;18.806;2023-11-21T03:04:47;13.07;;;8.00;;
68300;SDS011;55146;47.468;18.806;2023-11-21T03:07:14;13.32;;;8.38;;
68300;SDS011;55146;47.468;18.806;2023-11-21T03:09:40;12.75;;;6.97;;
68300;SDS011;55146;47.468;18.806;2023-11-21T03:12:05;13.47;;;8.43;;
68300;SDS011;55146;47.468;18.806;2023-11-21T03:14:31;13.57;;;8.77;;
68300;SDS011;55146;47.468;18.806;2023-11-21T03:16:56;15.20;;;8.77;;
68300;SDS011;55146;47.468;18.806;2023-11-21T03:19:22;13.07;;;8.45;;
68300;SDS011;55146;47.468;18.806;2023-11-21T03:21:47;14.60;;;8.37;;
68300;SDS011;55146;47.468;18.806;2023-11-21T03:24:12;13.73;;;9.00;;
68300;SDS011;55146;47.468;18.806;2023-11-21T03:26:38;14.53;;;7.27;;
68300;SDS011;55146;47.468;18.806;2023-11-21T03:29:03;15.00;;;8.43;;
68300;SDS011;55146;47.468;18.806;2023-11-21T03:31:29;15.60;;;9.13;;
68300;SDS011;55146;47.468;18.806;2023-11-21T03:33:55;13.73;;;8.97;;
68300;SDS011;55146;47.468;18.806;2023-11-21T03:36:20;11.82;;;7.45;;
68300;SDS011;55146;47.468;18.806;2023-11-21T03:38:47;13.33;;;8.00;;
68300;SDS011;55146;47.468;18.806;2023-11-21T03:41:13;14.43;;;8.30;;
68300;SDS011;55146;47.468;18.806;2023-11-21T03:43:39;15.40;;;8.60;;
68300;SDS011;55146;47.468;18.806;2023-11-21T03:46:05;15.43;;;9.07;;
68300;SDS011;55146;47.468;18.806;2023-11-21T03:48:30;11.60;;;7.07;;
68300;SDS011;55146;47.468;18.806;2023-11-21T03:50:56;12.50;;;7.50;;
68300;SDS011;55146;47.468;18.806;2023-11-21T03:53:21;12.63;;;8.18;;
68300;SDS011;55146;47.468;18.806;2023-11-21T03:55:47;13.43;;;7.83;;
68300;SDS011;55146;47.468;18.806;2023-11-21T03:58:12;10.33;;;6.63;;
68300;SDS011;55146;47.468;18.806;2023-11-21T04:00:37;13.93;;;8.13;;
68300;SDS011;55146;47.468;18.806;2023-11-21T04:03:03;11.77;;;7.30;;
68300;SDS011;55146;47.468;18.806;2023-11-21T04:05:28;13.43;;;8.67;;
68300;SDS011;55146;47.468;18.806;2023-11-21T04:07:53;12.90;;;7.33;;
68300;SDS011;55146;47.468;18.806;2023-11-21T04:10:19;14.30;;;9.13;;
68300;SDS011;55146;47.468;18.806;2023-11-21T04:12:44;14.93;;;8.07;;
68300;SDS011;55146;47.468;18.806;2023-11-21T04:15:10;16.75;;;8.90;;
68300;SDS011;55146;47.468;18.806;2023-11-21T04:17:38;14.27;;;7.60;;
68300;SDS011;55146;47.468;18.806;2023-11-21T04:20:04;17.67;;;8.35;;
68300;SDS011;55146;47.468;18.806;2023-11-21T04:22:33;15.20;;;9.02;;
68300;SDS011;55146;47.468;18.806;2023-11-21T04:24:59;12.60;;;7.70;;
68300;SDS011;55146;47.468;18.806;2023-11-21T04:27:24;14.13;;;8.77;;
68300;SDS011;55146;47.468;18.806;2023-11-21T04:29:50;14.13;;;8.67;;
68300;SDS011;55146;47.468;18.806;2023-11-21T04:32:15;14.67;;;8.10;;
68300;SDS011;55146;47.468;18.806;2023-11-21T04:34:41;11.20;;;7.67;;
68300;SDS011;55146;47.468;18.806;2023-11-21T04:37:06;14.50;;;8.13;;
68300;SDS011;55146;47.468;18.806;2023-11-21T04:39:31;14.07;;;8.77;;
68300;SDS011;55146;47.468;18.806;2023-11-21T04:41:57;13.07;;;7.78;;
68300;SDS011;55146;47.468;18.806;2023-11-21T04:44:22;15.13;;;8.30;;
68300;SDS011;55146;47.468;18.806;2023-11-21T04:46:47;15.67;;;8.73;;
68300;SDS011;55146;47.468;18.806;2023-11-21T04:49:13;13.53;;;8.13;;
68300;SDS011;55146;47.468;18.806;2023-11-21T04:51:39;13.70;;;8.35;;
68300;SDS011;55146;47.468;18.806;2023-11-21T04:54:04;13.47;;;7.90;;
68300;SDS011;55146;47.468;18.806;2023-11-21T04:56:30;15.98;;;8.55;;
68300;SDS011;55146;47.468;18.806;2023-11-21T04:58:56;12.20;;;7.50;;
68300;SDS011;55146;47.468;18.806;2023-11-21T05:01:21;15.17;;;8.53;;
68300;SDS011;55146;47.468;18.806;2023-11-21T05:03:47;13.63;;;8.40;;
68300;SDS011;55146;47.468;18.806;2023-11-21T05:06:13;14.20;;;8.85;;
68300;SDS011;55146;47.468;18.806;2023-11-21T05:08:39;19.73;;;9.60;;
68300;SDS011;55146;47.468;18.806;2023-11-21T05:11:04;18.70;;;8.73;;
68300;SDS011;55146;47.468;18.806;2023-11-21T05:13:32;16.55;;;10.05;;
68300;SDS011;55146;47.468;18.806;2023-11-21T05:15:59;16.43;;;8.20;;
68300;SDS011;55146;47.468;18.806;2023-11-21T05:18:24;17.27;;;10.02;;
68300;SDS011;55146;47.468;18.806;2023-11-21T05:20:53;17.10;;;8.75;;
68300;SDS011;55146;47.468;18.806;2023-11-21T05:23:18;16.80;;;9.70;;
68300;SDS011;55146;47.468;18.806;2023-11-21T05:25:44;18.70;;;9.93;;
68300;SDS011;55146;47.468;18.806;2023-11-21T05:28:09;19.03;;;9.13;;
68300;SDS011;55146;47.468;18.806;2023-11-21T05:30:34;13.70;;;8.60;;
68300;SDS011;55146;47.468;18.806;2023-11-21T05:33:00;17.57;;;10.30;;
68300;SDS011;55146;47.468;18.806;2023-11-21T05:35:25;17.87;;;10.63;;
68300;SDS011;55146;47.468;18.806;2023-11-21T05:37:51;16.20;;;9.57;;
68300;SDS011;55146;47.468;18.806;2023-11-21T05:40:17;21.50;;;9.73;;
68300;SDS011;55146;47.468;18.806;2023-11-21T05:42:43;22.27;;;11.07;;
68300;SDS011;55146;47.468;18.806;2023-11-21T05:45:09;17.23;;;9.93;;
68300;SDS011;55146;47.468;18.806;2023-11-21T05:47:39;23.00;;;12.47;;
68300;SDS011;55146;47.468;18.806;2023-11-21T05:50:06;18.37;;;10.23;;
68300;SDS011;55146;47.468;18.806;2023-11-21T05:52:35;16.83;;;10.27;;
68300;SDS011;55146;47.468;18.806;2023-11-21T05:55:01;20.37;;;9.85;;
68300;SDS011;55146;47.468;18.806;2023-11-21T05:57:26;17.67;;;9.77;;
68300;SDS011;55146;47.468;18.806;2023-11-21T05:59:52;16.77;;;9.43;;
68300;SDS011;55146;47.468;18.806;2023-11-21T06:02:17;14.77;;;8.60;;
68300;SDS011;55146;47.468;18.806;2023-11-21T06:04:43;17.27;;;9.82;;
68300;SDS011;55146;47.468;18.806;2023-11-21T06:07:08;16.30;;;9.37;;
68300;SDS011;55146;47.468;18.806;2023-11-21T06:09:35;20.00;;;10.77;;
68300;SDS011;55146;47.468;18.806;2023-11-21T06:12:00;22.37;;;11.70;;
68300;SDS011;55146;47.468;18.806;2023-11-21T06:14:25;18.63;;;10.40;;
68300;SDS011;55146;47.468;18.806;2023-11-21T06:16:51;15.67;;;10.43;;
68300;SDS011;55146;47.468;18.806;2023-11-21T06:19:17;17.10;;;10.68;;
68300;SDS011;55146;47.468;18.806;2023-11-21T06:21:45;14.10;;;7.47;;
68300;SDS011;55146;47.468;18.806;2023-11-21T06:24:11;12.45;;;8.10;;
68300;SDS011;55146;47.468;18.806;2023-11-21T06:26:37;14.10;;;9.00;;
68300;SDS011;55146;47.468;18.806;2023-11-21T06:29:03;13.60;;;8.80;;
68300;SDS011;55146;47.468;18.806;2023-11-21T06:31:29;18.70;;;9.77;;
68300;SDS011;55146;47.468;18.806;2023-11-21T06:33:54;17.87;;;11.30;;
68300;SDS011;55146;47.468;18.806;2023-11-21T06:36:20;16.30;;;10.40;;
68300;SDS011;55146;47.468;18.806;2023-11-21T06:38:45;16.30;;;10.83;;
68300;SDS011;55146;47.468;18.806;2023-11-21T06:41:11;17.25;;;11.32;;
68300;SDS011;55146;47.468;18.806;2023-11-21T06:43:38;18.75;;;11.55;;
68300;SDS011;55146;47.468;18.806;2023-11-21T06:46:04;15.93;;;10.00;;
68300;SDS011;55146;47.468;18.806;2023-11-21T06:48:30;16.17;;;10.70;;
68300;SDS011;55146;47.468;18.806;2023-11-21T06:50:56;16.30;;;10.50;;
68300;SDS011;55146;47.468;18.806;2023-11-21T06:53:21;18.10;;;10.40;;
68300;SDS011;55146;47.468;18.806;2023-11-21T06:55:47;18.80;;;11.48;;
68300;SDS011;55146;47.468;18.806;2023-11-21T06:58:12;15.87;;;11.30;;
68300;SDS011;55146;47.468;18.806;2023-11-21T07:00:39;18.93;;;11.30;;
68300;SDS011;55146;47.468;18.806;2023-11-21T07:03:04;15.95;;;9.82;;
68300;SDS011;55146;47.468;18.806;2023-11-21T07:05:30;16.53;;;9.97;;
68300;SDS011;55146;47.468;18.806;2023-11-21T07:07:55;17.43;;;9.57;;
68300;SDS011;55146;47.468;18.806;2023-11-21T07:10:21;17.37;;;9.67;;
68300;SDS011;55146;47.468;18.806;2023-11-21T07:12:46;14.97;;;10.50;;
68300;SDS011;55146;47.468;18.806;2023-11-21T07:15:11;18.87;;;10.75;;
68300;SDS011;55146;47.468;18.806;2023-11-21T07:17:37;15.83;;;9.37;;
68300;SDS011;55146;47.468;18.806;2023-11-21T07:20:03;16.92;;;10.23;;
68300;SDS011;55146;47.468;18.806;2023-11-21T07:22:29;17.63;;;9.40;;
68300;SDS011;55146;47.468;18.806;2023-11-21T07:24:55;17.75;;;10.00;;
68300;SDS011;55146;47.468;18.806;2023-11-21T07:27:21;18.60;;;9.77;;
68300;SDS011;55146;47.468;18.806;2023-11-21T07:29:47;15.90;;;9.97;;
68300;SDS011;55146;47.468;18.806;2023-11-21T07:32:13;20.10;;;10.88;;
68300;SDS011;55146;47.468;18.806;2023-11-21T07:34:39;21.62;;;10.48;;
68300;SDS011;55146;47.468;18.806;2023-11-21T07:37:05;21.03;;;12.03;;
68300;SDS011;55146;47.468;18.806;2023-11-21T07:39:30;14.10;;;10.47;;
68300;SDS011;55146;47.468;18.806;2023-11-21T07:41:56;18.77;;;10.95;;
68300;SDS011;55146;47.468;18.806;2023-11-21T07:44:23;19.00;;;11.90;;
68300;SDS011;55146;47.468;18.806;2023-11-21T07:46:48;20.02;;;10.43;;
68300;SDS011;55146;47.468;18.806;2023-11-21T07:49:14;18.93;;;10.70;;
68300;SDS011;55146;47.468;18.806;2023-11-21T07:51:42;25.75;;;13.82;;
68300;SDS011;55146;47.468;18.806;2023-11-21T07:54:08;35.53;;;14.57;;
68300;SDS011;55146;47.468;18.806;2023-11-21T07:56:35;18.62;;;10.40;;
68300;SDS011;55146;47.468;18.806;2023-11-21T07:59:00;15.17;;;10.00;;
68300;SDS011;55146;47.468;18.806;2023-11-21T08:01:25;14.07;;;9.83;;
68300;SDS011;55146;47.468;18.806;2023-11-21T08:03:53;13.73;;;8.85;;
68300;SDS011;55146;47.468;18.806;2023-11-21T08:06:21;17.00;;;9.75;;
68300;SDS011;55146;47.468;18.806;2023-11-21T08:08:48;17.08;;;10.10;;
68300;SDS011;55146;47.468;18.806;2023-11-21T08:11:13;19.83;;;8.37;;
68300;SDS011;55146;47.468;18.806;2023-11-21T08:13:38;15.40;;;9.10;;
68300;SDS011;55146;47.468;18.806;2023-11-21T08:16:04;15.27;;;9.80;;
68300;SDS011;55146;47.468;18.806;2023-11-21T08:18:30;18.00;;;11.25;;
68300;SDS011;55146;47.468;18.806;2023-11-21T08:20:55;16.10;;;10.50;;
68300;SDS011;55146;47.468;18.806;2023-11-21T08:23:21;13.77;;;9.53;;
68300;SDS011;55146;47.468;18.806;2023-11-21T08:25:56;13.95;;;9.82;;
68300;SDS011;55146;47.468;18.806;2023-11-21T08:28:21;16.63;;;8.83;;
68300;SDS011;55146;47.468;18.806;2023-11-21T08:30:50;12.77;;;9.18;;
68300;SDS011;55146;47.468;18.806;2023-11-21T08:33:22;14.00;;;7.25;;
68300;SDS011;55146;47.468;18.806;2023-11-21T08:35:48;13.73;;;9.87;;
68300;SDS011;55146;47.468;18.806;2023-11-21T08:38:13;14.30;;;9.60;;
68300;SDS011;55146;47.468;18.806;2023-11-21T08:40:39;15.47;;;9.83;;
68300;SDS011;55146;47.468;18.806;2023-11-21T08:43:04;14.73;;;9.60;;
68300;SDS011;55146;47.468;18.806;2023-11-21T08:45:30;16.07;;;8.90;;
68300;SDS011;55146;47.468;18.806;2023-11-21T08:47:56;11.00;;;7.17;;
68300;SDS011;55146;47.468;18.806;2023-11-21T08:50:21;12.75;;;7.75;;
68300;SDS011;55146;47.468;18.806;2023-11-21T08:52:46;14.87;;;8.10;;
68300;SDS011;55146;47.468;18.806;2023-11-21T08:55:12;14.20;;;8.10;;
68300;SDS011;55146;47.468;18.806;2023-11-21T08:57:39;12.93;;;7.70;;
68300;SDS011;55146;47.468;18.806;2023-11-21T09:00:06;17.48;;;7.93;;
68300;SDS011;55146;47.468;18.806;2023-11-21T09:02:42;14.93;;;8.07;;
68300;SDS011;55146;47.468;18.806;2023-11-21T09:05:09;17.17;;;9.52;;
68300;SDS011;55146;47.468;18.806;2023-11-21T09:07:36;13.43;;;8.63;;
68300;SDS011;55146;47.468;18.806;2023-11-21T09:10:02;14.32;;;8.00;;
68300;SDS011;55146;47.468;18.806;2023-11-21T09:12:29;24.45;;;14.15;;
68300;SDS011;55146;47.468;18.806;2023-11-21T09:14:54;35.33;;;20.70;;
68300;SDS011;55146;47.468;18.806;2023-11-21T09:17:19;33.60;;;18.73;;
68300;SDS011;55146;47.468;18.806;2023-11-21T09:19:45;30.47;;;16.70;;
68300;SDS011;55146;47.468;18.806;2023-11-21T09:22:14;18.12;;;11.43;;
68300;SDS011;55146;47.468;18.806;2023-11-21T09:24:40;18.40;;;11.97;;
68300;SDS011;55146;47.468;18.806;2023-11-21T09:27:05;16.90;;;10.85;;
68300;SDS011;55146;47.468;18.806;2023-11-21T09:29:30;15.47;;;9.63;;
68300;SDS011;55146;47.468;18.806;2023-11-21T09:31:57;28.92;;;12.80;;
68300;SDS011;55146;47.468;18.806;2023-11-21T09:34:24;43.10;;;16.57;;
68300;SDS011;55146;47.468;18.806;2023-11-21T09:36:50;35.80;;;19.52;;
68300;SDS011;55146;47.468;18.806;2023-11-21T09:39:16;42.03;;;19.87;;
68300;SDS011;55146;47.468;18.806;2023-11-21T09:41:43;46.58;;;19.58;;
68300;SDS011;55146;47.468;18.806;2023-11-21T09:44:14;44.17;;;18.70;;
68300;SDS011;55146;47.468;18.806;2023-11-21T09:46:44;36.42;;;18.12;;
68300;SDS011;55146;47.468;18.806;2023-11-21T09:49:13;23.45;;;13.27;;
68300;SDS011;55146;47.468;18.806;2023-11-21T09:51:41;26.05;;;14.10;;
68300;SDS011;55146;47.468;18.806;2023-11-21T09:54:08;20.12;;;13.10;;
68300;SDS011;55146;47.468;18.806;2023-11-21T09:56:37;19.20;;;11.03;;
68300;SDS011;55146;47.468;18.806;2023-11-21T09:59:03;30.05;;;17.83;;
68300;SDS011;55146;47.468;18.806;2023-11-21T10:01:32;34.22;;;21.55;;
68300;SDS011;55146;47.468;18.806;2023-11-21T10:03:58;29.85;;;17.27;;
68300;SDS011;55146;47.468;18.806;2023-11-21T10:06:24;28.65;;;15.25;;
68300;SDS011;55146;47.468;18.806;2023-11-21T10:08:52;26.60;;;14.20;;
68300;SDS011;55146;47.468;18.806;2023-11-21T10:11:21;25.80;;;15.88;;
68300;SDS011;55146;47.468;18.806;2023-11-21T10:13:49;26.00;;;18.70;;
68300;SDS011;55146;47.468;18.806;2023-11-21T10:16:19;28.60;;;17.30;;
68300;SDS011;55146;47.468;18.806;2023-11-21T10:18:48;30.05;;;16.37;;
68300;SDS011;55146;47.468;18.806;2023-11-21T10:21:17;25.83;;;15.57;;
68300;SDS011;55146;47.468;18.806;2023-11-21T10:23:43;40.17;;;23.90;;
68300;SDS011;55146;47.468;18.806;2023-11-21T10:26:09;26.25;;;16.17;;
68300;SDS011;55146;47.468;18.806;2023-11-21T10:28:41;21.02;;;13.48;;
68300;SDS011;55146;47.468;18.806;2023-11-21T10:31:07;21.73;;;12.57;;
68300;SDS011;55146;47.468;18.806;2023-11-21T10:33:32;20.25;;;13.27;;
68300;SDS011;55146;47.468;18.806;2023-11-21T10:35:58;19.47;;;11.97;;
68300;SDS011;55146;47.468;18.806;2023-11-21T10:38:24;21.98;;;13.52;;
68300;SDS011;55146;47.468;18.806;2023-11-21T10:40:52;20.15;;;11.80;;
68300;SDS011;55146;47.468;18.806;2023-11-21T10:43:17;20.17;;;8.93;;
68300;SDS011;55146;47.468;18.806;2023-11-21T10:45:43;13.10;;;8.07;;
68300;SDS011;55146;47.468;18.806;2023-11-21T10:48:09;13.60;;;9.00;;
68300;SDS011;55146;47.468;18.806;2023-11-21T10:50:37;16.48;;;8.93;;
68300;SDS011;55146;47.468;18.806;2023-11-21T10:53:03;15.33;;;10.20;;
68300;SDS011;55146;47.468;18.806;2023-11-21T10:55:29;18.02;;;11.30;;
68300;SDS011;55146;47.468;18.806;2023-11-21T10:57:58;29.02;;;15.82;;
68300;SDS011;55146;47.468;18.806;2023-11-21T11:00:25;31.27;;;18.10;;
68300;SDS011;55146;47.468;18.806;2023-11-21T11:02:52;27.27;;;16.08;;
68300;SDS011;55146;47.468;18.806;2023-11-21T11:05:25;35.47;;;15.43;;
68300;SDS011;55146;47.468;18.806;2023-11-21T11:07:52;26.98;;;16.12;;
68300;SDS011;55146;47.468;18.806;2023-11-21T11:10:26;30.80;;;17.35;;
68300;SDS011;55146;47.468;18.806;2023-11-21T11:12:54;23.85;;;14.38;;
68300;SDS011;55146;47.468;18.806;2023-11-21T11:15:20;24.70;;;15.07;;
68300;SDS011;55146;47.468;18.806;2023-11-21T11:17:46;21.13;;;11.17;;
68300;SDS011;55146;47.468;18.806;2023-11-21T11:20:14;15.77;;;9.98;;
68300;SDS011;55146;47.468;18.806;2023-11-21T11:22:44;18.65;;;10.55;;
68300;SDS011;55146;47.468;18.806;2023-11-21T11:25:25;18.65;;;9.88;;
68300;SDS011;55146;47.468;18.806;2023-11-21T11:28:12;18.62;;;11.43;;
68300;SDS011;55146;47.468;18.806;2023-11-21T11:33:41;17.67;;;12.00;;
68300;SDS011;55146;47.468;18.806;2023-11-21T11:36:29;18.15;;;13.10;;
68300;SDS011;55146;47.468;18.806;2023-11-21T11:38:59;19.35;;;12.90;;
68300;SDS011;55146;47.468;18.806;2023-11-21T11:41:27;23.23;;;14.23;;
68300;SDS011;55146;47.468;18.806;2023-11-21T11:43:55;22.60;;;14.63;;
68300;SDS011;55146;47.468;18.806;2023-11-21T11:46:21;25.50;;;14.40;;
68300;SDS011;55146;47.468;18.806;2023-11-21T11:49:06;28.00;;;14.17;;
68300;SDS011;55146;47.468;18.806;2023-11-21T11:51:33;23.48;;;14.52;;
68300;SDS011;55146;47.468;18.806;2023-11-21T11:54:00;27.35;;;13.60;;
68300;SDS011;55146;47.468;18.806;2023-11-21T11:56:30;17.42;;;12.15;;
68300;SDS011;55146;47.468;18.806;2023-11-21T11:58:59;17.90;;;10.30;;
68300;SDS011;55146;47.468;18.806;2023-11-21T12:01:27;19.92;;;10.73;;
68300;SDS011;55146;47.468;18.806;2023-11-21T12:04:23;22.92;;;12.15;;
68300;SDS011;55146;47.468;18.806;2023-11-21T12:06:45;20.33;;;12.02;;
68300;SDS011;55146;47.468;18.806;2023-11-21T12:09:18;18.17;;;12.77;;
68300;SDS011;55146;47.468;18.806;2023-11-21T12:11:47;20.37;;;12.00;;
68300;SDS011;55146;47.468;18.806;2023-11-21T12:14:14;24.70;;;12.40;;
68300;SDS011;55146;47.468;18.806;2023-11-21T12:16:40;19.23;;;12.50;;
68300;SDS011;55146;47.468;18.806;2023-11-21T12:19:07;16.95;;;11.63;;
68300;SDS011;55146;47.468;18.806;2023-11-21T12:21:33;18.50;;;12.50;;
68300;SDS011;55146;47.468;18.806;2023-11-21T12:23:59;17.67;;;12.07;;
68300;SDS011;55146;47.468;18.806;2023-11-21T12:26:25;30.73;;;24.97;;
68300;SDS011;55146;47.468;18.806;2023-11-21T12:28:53;21.92;;;15.55;;
68300;SDS011;55146;47.468;18.806;2023-11-21T12:31:21;16.90;;;11.23;;
68300;SDS011;55146;47.468;18.806;2023-11-21T12:33:47;15.68;;;9.75;;
68300;SDS011;55146;47.468;18.806;2023-11-21T12:36:13;22.80;;;12.80;;
68300;SDS011;55146;47.468;18.806;2023-11-21T12:38:39;17.52;;;9.50;;
68300;SDS011;55146;47.468;18.806;2023-11-21T12:41:05;14.50;;;9.17;;
68300;SDS011;55146;47.468;18.806;2023-11-21T12:43:31;16.15;;;10.00;;
68300;SDS011;55146;47.468;18.806;2023-11-21T12:46:10;14.25;;;9.55;;
68300;SDS011;55146;47.468;18.806;2023-11-21T12:48:39;20.77;;;10.70;;
68300;SDS011;55146;47.468;18.806;2023-11-21T12:51:09;18.33;;;10.65;;
68300;SDS011;55146;47.468;18.806;2023-11-21T12:53:36;14.23;;;10.10;;
68300;SDS011;55146;47.468;18.806;2023-11-21T12:56:07;18.95;;;10.95;;
68300;SDS011;55146;47.468;18.806;2023-11-21T12:58:34;19.05;;;10.07;;
68300;SDS011;55146;47.468;18.806;2023-11-21T13:01:00;14.50;;;10.07;;
68300;SDS011;55146;47.468;18.806;2023-11-21T13:03:29;15.27;;;10.13;;
68300;SDS011;55146;47.468;18.806;2023-11-21T13:05:55;15.00;;;9.77;;
68300;SDS011;55146;47.468;18.806;2023-11-21T13:08:22;17.87;;;9.32;;
68300;SDS011;55146;47.468;18.806;2023-11-21T13:10:50;17.10;;;9.90;;
68300;SDS011;55146;47.468;18.806;2023-11-21T13:13:20;17.33;;;10.55;;
68300;SDS011;55146;47.468;18.806;2023-11-21T13:18:15;14.57;;;9.98;;
68300;SDS011;55146;47.468;18.806;2023-11-21T13:20:41;16.33;;;10.65;;
68300;SDS011;55146;47.468;18.806;2023-11-21T13:23:08;20.60;;;10.97;;
68300;SDS011;55146;47.468;18.806;2023-11-21T13:25:36;18.90;;;10.40;;
68300;SDS011;55146;47.468;18.806;2023-11-21T13:28:10;18.23;;;11.35;;
68300;SDS011;55146;47.468;18.806;2023-11-21T13:30:37;16.30;;;10.10;;
68300;SDS011;55146;47.468;18.806;2023-11-21T13:33:05;18.52;;;10.82;;
68300;SDS011;55146;47.468;18.806;2023-11-21T13:35:33;15.70;;;10.70;;
68300;SDS011;55146;47.468;18.806;2023-11-21T13:38:13;13.75;;;8.90;;
68300;SDS011;55146;47.468;18.806;2023-11-21T13:40:42;16.80;;;10.50;;
68300;SDS011;55146;47.468;18.806;2023-11-21T13:43:14;19.23;;;9.95;;
68300;SDS011;55146;47.468;18.806;2023-11-21T13:45:40;13.88;;;8.27;;
68300;SDS011;55146;47.468;18.806;2023-11-21T13:48:07;12.20;;;7.83;;
68300;SDS011;55146;47.468;18.806;2023-11-21T13:50:41;13.52;;;7.45;;
68300;SDS011;55146;47.468;18.806;2023-11-21T13:53:13;10.98;;;7.57;;
68300;SDS011;55146;47.468;18.806;2023-11-21T13:55:49;15.23;;;7.70;;
68300;SDS011;55146;47.468;18.806;2023-11-21T13:58:15;13.73;;;6.87;;
68300;SDS011;55146;47.468;18.806;2023-11-21T14:00:47;13.03;;;6.67;;
68300;SDS011;55146;47.468;18.806;2023-11-21T14:03:21;9.63;;;7.03;;
68300;SDS011;55146;47.468;18.806;2023-11-21T14:05:48;11.45;;;7.00;;
68300;SDS011;55146;47.468;18.806;2023-11-21T14:08:22;9.32;;;6.07;;
68300;SDS011;55146;47.468;18.806;2023-11-21T14:10:53;16.65;;;7.37;;
68300;SDS011;55146;47.468;18.806;2023-11-21T14:13:22;10.63;;;6.23;;
68300;SDS011;55146;47.468;18.806;2023-11-21T14:15:52;16.17;;;7.50;;
68300;SDS011;55146;47.468;18.806;2023-11-21T14:18:24;13.60;;;6.82;;
68300;SDS011;55146;47.468;18.806;2023-11-21T14:20:59;12.70;;;6.97;;